• Join FlightAware (Why Join?)
  • Login
  • US Flag 
07:56PM EDT


 

Airport Tracker/Info


-or-


 

Live Flight TrackerFlight Track Log ✈ WIG7117 ✈ 18-Jul-2013 ✈ KALB - KSYR

Flight Track Log - Related Links

Times and Time Zones

All times are in EDT time to prevent confusion due to time zone crossing. See the WIG7117 flight status page for this flight to view local times or setup timezone preferences in your user account.

Time Position Orientation Groundspeed Altitude Reporting Facility
EDT Latitude Longitude Course Direction KTS MPH feet Rate Location/Type
10:24PM 42.7464 -73.8142 282° West 91 105 900  Level Boston Center
10:25PM 42.7522 -73.8511 282° West 109 125 1,800 900 Climbing Boston Center
10:26PM 42.7600 -73.8936 284° West 115 132 2,800 900 Climbing Boston Center
10:27PM 42.7658 -73.9361 281° West 118 136 3,700 840 Climbing Boston Center
10:28PM 42.7733 -73.9844 282° West 118 136 4,600 900 Climbing Boston Center
10:29PM 42.7811 -74.0269 284° West 117 135 5,600 900 Climbing Boston Center
10:30PM 42.7889 -74.0697 284° West 116 133 6,500 900 Climbing Boston Center
10:31PM 42.7967 -74.1125 284° West 113 130 7,500 720 Climbing Boston Center
10:32PM 42.8022 -74.1522 281° West 112 129 8,000 240 Climbing Boston Center
10:33PM 42.8119 -74.2033 285° West 135 155 8,000  Level Boston Center
10:34PM 42.8175 -74.2517 279° West 131 151 8,000  Level Boston Center
10:35PM 42.8289 -74.3058 286° West 128 147 8,000  Level Boston Center
10:36PM 42.8364 -74.3597 281° West 129 148 8,000  Level Boston Center
10:37PM 42.8442 -74.3997 285° West 129 148 8,000  Level Boston Center
10:38PM 42.8514 -74.4536 280° West 130 150 8,000  Level Boston Center
10:39PM 42.8589 -74.5050 281° West 131 151 8,000  Level Boston Center
10:40PM 42.8686 -74.5533 285° West 135 155 8,000  Level Boston Center
10:41PM 42.8739 -74.6017 278° West 132 152 8,000  Level Boston Center
10:42PM 42.8833 -74.6475 286° West 130 150 8,000  Level Boston Center
10:43PM 42.8906 -74.6986 281° West 133 153 8,000  Level Boston Center
10:44PM 42.9003 -74.7472 285° West 133 153 8,000  Level Boston Center
10:45PM 42.9075 -74.7986 281° West 132 152 8,000  Level Boston Center
10:47PM 42.9147 -74.8500 281° West 134 154 8,000  Level Boston Center
10:47PM 42.9242 -74.8986 285° West 135 155 8,000  Level Boston Center
10:49PM 42.9333 -74.9469 285° West 135 155 8,000  Level Boston Center
10:50PM 42.9408 -74.9956 282° West 137 158 8,000  Level Boston Center
10:51PM 42.9478 -75.0525 279° West 136 157 8,000  Level Boston Center
10:52PM 42.9592 -75.0986 289° West 133 153 8,000 -300 Level Boston Center
10:53PM 42.9661 -75.1528 280° West 140 161 7,400 -840 Descending Boston Center
10:54PM 42.9772 -75.2156 284° West 165 190 6,300 -960 Descending Boston Center
10:55PM 42.9861 -75.2756 281° West 161 185 5,400 -660 Descending Boston Center
10:56PM 42.9950 -75.3414 280° West 155 178 5,000 -240 Descending Boston Center
10:57PM 43.0019 -75.3928 280° West 137 158 5,000  Level Boston Center
10:58PM 43.0111 -75.4472 283° West 137 158 5,000 -60 Level Boston Center
10:59PM 43.0181 -75.4986 280° West 139 160 4,900 -60 Descending Boston Center
11:00PM 43.0272 -75.5447 285° West 138 159 4,900  Level Boston Center
11:01PM 43.0358 -75.6019 282° West 136 157 5,000  Climbing Boston Center
11:02PM 43.0389 -75.6447 276° West 137 158 5,000  Level Boston Center
11:03PM 43.0478 -75.6992 283° West 138 159 5,000  Level Boston Center
11:04PM 43.0761 -75.7347 317° Northwest 139 160 5,000  Level Boston Center
11:05PM 43.1086 -75.7622 328° Northwest 142 163 5,000  Level Boston Center
11:06PM 43.1433 -75.7867 333° Northwest 141 162 5,000 -60 Level Boston Center
11:07PM 43.1758 -75.8114 331° Northwest 140 161 4,900 -540 Descending Boston Center
11:08PM 43.2083 -75.8389 328° Northwest 142 163 4,000 -480 Descending Boston Center
11:09PM 43.2219 -75.8794 295° West 137 158 4,000 -180 Level Boston Center
11:10PM 43.1922 -75.8947 201° Southwest 163 188 3,700 -540 Descending Boston Center
11:11PM 43.1511 -75.8697 156° South 176 203 3,000 -600 Descending Boston Center
11:12PM 43.1133 -75.8819 193° South 150 173 2,600 -180 Descending Boston Center
11:13PM 43.1158 -75.9333 274° West 128 147 2,700 -300 Climbing Boston Center
11:14PM 43.1122 -75.9842 264° West 136 157 2,000 -720 Descending Boston Center
11:15PM 43.1106 -76.0353 267° West 126 145 1,300 -660 Descending Boston Center
11:16PM 43.1094 -76.0781 268° West 110 127 700 -600 Descending Boston Center
11:18PM 43.1000 -76.1000 242° Southwest  Level FlightAware Approximate
11:25PM 43.1112 -76.1063 242° Southwest  Level Estimated
11:26PM 43.1112 -76.1063 242° Southwest  Level Estimated
11:27PM 43.1112 -76.1063 242° Southwest  Level Estimated
11:28PM 43.1112 -76.1063 242° Southwest  Level Estimated
11:29PM 43.1112 -76.1063 242° Southwest  Level Estimated